• Join FlightAware (Why Join?)
  • Login
  • US Flag 
11:24PM EST


 

Airport Tracker/Info


-or-


 

Live Flight TrackerFlight Track Log ✈ UAL6002 ✈ 23-Apr-2013 ✈ KCMH - KIAD

Flight Track Log - Related Links

Times and Time Zones

All times are in EDT time to prevent confusion due to time zone crossing. See the UAL6002 flight status page for this flight to view local times or setup timezone preferences in your user account.

Time Position Orientation Groundspeed Altitude Reporting Facility
EDT Latitude Longitude Course Direction KTS MPH feet Rate Location/Type
03:23PM 39.9978 -82.9478 90° East 173 199 2,600  Level Indianapolis Center
03:24PM 40.0025 -82.9956 277° West 197 227 3,900 2,340 Climbing Indianapolis Center
03:25PM 39.9475 -83.0275 204° Southwest 234 269 6,600 2,640 Climbing Indianapolis Center
03:26PM 39.8786 -83.0036 165° South 261 300 9,400 1,980 Climbing Indianapolis Center
03:27PM 39.8697 -82.8914 96° East 324 373 10,800 1,560 Climbing Indianapolis Center
03:28PM 39.9410 -82.0054 95° East  Level FlightAware Approximate
03:28PM 39.8806 -82.7558 84° East 366 421 12,700  Level Indianapolis Center
03:29PM 39.9333 -81.8807 90° East  Level FlightAware Approximate
03:29PM 39.8911 -82.6175 84° East 379 436 14,500  Level Indianapolis Center
03:30PM 39.9017 -82.4719 85° East 397 457 16,300 1,860 Climbing Indianapolis Center
03:31PM 39.9139 -82.3022 85° East 403 464 18,400 2,400 Climbing Indianapolis Center
03:32PM 39.9244 -82.1625 84° East 388 447 21,300 2,220 Climbing Indianapolis Center
03:33PM 39.9344 -82.0303 84° East 369 425 23,100 1,500 Climbing Indianapolis Center
03:34PM 39.9442 -81.8889 85° East 382 440 24,400 1,260 Climbing Indianapolis Center
03:35PM 39.9550 -81.7425 84° East 400 460 25,800 1,200 Climbing Indianapolis Center
03:36PM 39.9650 -81.5922 85° East 409 471 27,000 1,200 Climbing Indianapolis Center
03:37PM 39.9739 -81.4378 86° East 418 481 28,300 1,380 Climbing Indianapolis Center
03:39PM 39.9417 -81.2822 105° East 431 496 29,900 1,560 Climbing Indianapolis Center
03:40PM 39.9014 -81.1081 107° East 424 488 31,600 1,440 Climbing Cleveland Center
03:41PM 39.8644 -80.9617 108° East 424 488 32,900 660 Climbing Cleveland Center
03:42PM 39.8272 -80.8075 107° East 424 488 33,000  Climbing Cleveland Center
03:43PM 39.7836 -80.6397 109° East 453 521 33,000  Level Cleveland Center
03:44PM 39.7397 -80.4669 108° East 485 558 33,000  Level Cleveland Center
03:45PM 39.6936 -80.2864 108° East 509 586 33,000 -420 Level Cleveland Center
03:47PM 39.5936 -79.8817 108° East 530 610 31,600 -1,380 Descending Washington Center
03:48PM 39.5419 -79.6903 109° East 525 604 28,400 -2,340 Descending Washington Center
03:49PM 39.4997 -79.5211 108° East 513 590 27,000 -720 Descending Washington Center
03:50PM 39.4694 -79.3528 103° East 491 565 27,000 -420 Level Washington Center
03:51PM 39.4389 -79.1953 104° East 484 557 26,200 -1,200 Descending Washington Center
03:52PM 39.4081 -79.0353 104° East 475 547 24,600 -2,340 Descending Washington Center
03:53PM 39.3811 -78.8889 103° East 447 514 21,600 -3,360 Descending Washington Center
03:54PM 39.3558 -78.7428 103° East 426 490 18,000 -3,180 Descending Washington Center
03:55PM 39.3319 -78.6128 103° East 393 452 15,300 -2,400 Descending Washington Center
03:56PM 39.3081 -78.4806 103° East 377 434 13,200 -1,920 Descending Washington Center
03:57PM 39.2819 -78.3589 105° East 372 428 11,500 -1,200 Descending Washington Center
03:58PM 39.2297 -78.2631 125° Southeast 338 389 10,900 -1,140 Descending Washington Center
03:59PM 39.1575 -78.2308 161° South 283 326 9,300 -1,680 Descending Washington Center
04:00PM 39.0789 -78.2067 167° South 278 320 7,600 -1,200 Descending Washington Center
04:01PM 39.0064 -78.1853 167° South 278 320 6,900 -600 Descending Washington Center
04:02PM 38.9492 -78.1272 142° Southeast 265 305 6,500 -540 Descending Washington Center
04:03PM 38.9217 -78.0517 115° Southeast 247 284 5,900 -300 Descending Washington Center
04:04PM 38.9358 -77.9614 79° East 220 253 5,900  Level Washington Center
04:06PM 38.9667 -77.7833 77° East 245 282 5,900  Level Potomac TRACON
04:07PM 38.9667 -77.7000 90° East 244 281 5,900  Level Potomac TRACON
04:08PM 38.9333 -77.6167 117° Southeast 247 284 5,900  Level Potomac TRACON
04:09PM 38.8667 -77.5833 159° South 269 310 5,900 -540 Level Potomac TRACON
04:10PM 38.8000 -77.5833 180° South 259 298 4,900 -1,260 Descending Potomac TRACON
04:11PM 38.7500 -77.5333 142° Southeast 265 305 3,500 -1,080 Descending Potomac TRACON
04:12PM 38.7833 -77.4667 57° Northeast 199 229 2,700 -720 Descending Potomac TRACON
04:13PM 38.8167 -77.4667 360° North 182 209 2,100 -720 Descending Potomac TRACON